createdAt,value
2022-09-15T00:02:10.355Z,7.53
2022-09-15T00:05:15.113Z,6.43
2022-09-15T00:08:18.174Z,7.17
2022-09-15T00:11:24.399Z,7.10
2022-09-15T00:14:27.472Z,7.27
2022-09-15T00:17:32.143Z,7.13
2022-09-15T00:20:35.177Z,7.60
2022-09-15T00:23:39.521Z,8.77
2022-09-15T00:26:42.582Z,8.23
2022-09-15T00:29:45.831Z,7.13
2022-09-15T00:32:50.317Z,7.60
2022-09-15T00:35:54.698Z,8.33
2022-09-15T00:38:58.947Z,8.30
2022-09-15T00:42:02.353Z,8.40
2022-09-15T00:45:06.408Z,8.20
2022-09-15T00:48:18.452Z,7.73
2022-09-15T00:51:25.955Z,8.00
2022-09-15T00:54:33.042Z,8.20
2022-09-15T00:57:40.450Z,7.10
2022-09-15T01:00:48.831Z,7.70
2022-09-15T01:03:53.383Z,8.20
2022-09-15T01:07:00.135Z,7.93
2022-09-15T01:10:07.580Z,7.00
2022-09-15T01:13:13.211Z,6.80
2022-09-15T01:20:06.939Z,6.57
2022-09-15T01:23:31.785Z,7.40
2022-09-15T01:27:37.712Z,8.00
2022-09-15T01:30:38.421Z,5.93
2022-09-15T01:33:47.257Z,7.00
2022-09-15T01:36:58.600Z,6.63
2022-09-15T01:40:03.216Z,6.53
2022-09-15T01:43:09.641Z,7.13
2022-09-15T01:46:16.482Z,7.13
2022-09-15T01:49:24.390Z,8.20
2022-09-15T01:52:29.098Z,7.50
2022-09-15T01:55:38.115Z,7.43
2022-09-15T01:58:42.556Z,6.40
2022-09-15T02:01:51.849Z,8.37
2022-09-15T02:04:59.326Z,8.33
2022-09-15T02:08:06.167Z,7.40
2022-09-15T02:11:16.317Z,7.50
2022-09-15T02:14:31.001Z,5.90
2022-09-15T02:17:39.055Z,6.27
2022-09-15T02:20:49.393Z,5.90
2022-09-15T02:23:57.975Z,5.00
2022-09-15T02:27:03.013Z,5.63
2022-09-15T02:30:11.924Z,6.00
2022-09-15T02:33:20.634Z,5.70
2022-09-15T02:36:24.367Z,6.50
2022-09-15T02:39:34.285Z,6.07
2022-09-15T02:42:37.531Z,6.43
2022-09-15T02:45:40.954Z,6.37
2022-09-15T02:48:45.496Z,6.30
2022-09-15T02:51:48.693Z,6.10
2022-09-15T02:54:51.794Z,6.77
2022-09-15T02:57:54.844Z,5.90
2022-09-15T03:00:58.174Z,6.30
2022-09-15T03:04:03.583Z,5.60
2022-09-15T03:07:06.744Z,6.20
2022-09-15T03:10:12.608Z,5.90
2022-09-15T03:13:15.663Z,5.43
2022-09-15T03:16:18.741Z,4.87
2022-09-15T03:19:23.178Z,5.33
2022-09-15T03:22:26.284Z,6.30
2022-09-15T03:25:29.746Z,5.40
2022-09-15T03:28:33.056Z,5.97
2022-09-15T03:31:36.277Z,4.73
2022-09-15T03:34:40.713Z,5.30
2022-09-15T03:37:43.788Z,4.80
2022-09-15T03:40:58.296Z,4.80
2022-09-15T03:44:01.374Z,5.23
2022-09-15T03:47:04.670Z,5.00
2022-09-15T03:50:10.157Z,5.30
2022-09-15T03:53:13.284Z,4.10
2022-09-15T03:56:23.572Z,5.13
2022-09-15T03:59:26.719Z,4.90
2022-09-15T04:02:29.880Z,4.03
2022-09-15T04:05:34.476Z,5.20
2022-09-15T04:08:37.827Z,5.43
2022-09-15T04:11:40.953Z,5.03
2022-09-15T04:14:44.328Z,5.73
2022-09-15T04:17:47.766Z,5.00
2022-09-15T04:20:52.172Z,5.50
2022-09-15T04:23:55.678Z,4.47
2022-09-15T04:26:58.720Z,4.53
2022-09-15T04:30:01.890Z,4.80
2022-09-15T04:33:04.982Z,6.17
2022-09-15T04:36:11.709Z,4.90
2022-09-15T04:39:15.048Z,5.67
2022-09-15T04:42:20.605Z,5.80
2022-09-15T04:45:23.676Z,5.53
2022-09-15T04:48:27.230Z,6.30
2022-09-15T04:51:31.715Z,5.50
2022-09-15T04:54:35.790Z,6.70
2022-09-15T04:57:38.866Z,5.67
2022-09-15T05:00:43.962Z,5.23
2022-09-15T05:03:47.840Z,5.17
2022-09-15T05:06:52.271Z,5.30
2022-09-15T05:09:55.582Z,4.93
2022-09-15T05:12:58.710Z,5.37
2022-09-15T05:16:05.655Z,5.80
2022-09-15T05:19:08.792Z,5.80
2022-09-15T05:22:13.284Z,4.93
2022-09-15T05:25:16.515Z,5.80
2022-09-15T05:28:19.542Z,5.70
2022-09-15T05:31:24.730Z,6.00
2022-09-15T05:34:27.814Z,5.50
2022-09-15T05:37:34.180Z,5.57
2022-09-15T05:40:37.463Z,5.40
2022-09-15T05:43:41.257Z,5.63
2022-09-15T05:46:44.416Z,5.70
2022-09-15T05:49:47.531Z,4.90
2022-09-15T05:52:54.199Z,5.10
2022-09-15T05:55:57.625Z,5.23
2022-09-15T05:59:01.019Z,5.30
2022-09-15T06:02:04.180Z,5.70
2022-09-15T06:05:08.030Z,4.97
2022-09-15T06:08:12.653Z,5.30
2022-09-15T06:11:17.202Z,5.67
2022-09-15T06:14:20.277Z,6.20
2022-09-15T06:17:23.665Z,6.37
2022-09-15T06:20:26.832Z,8.13
2022-09-15T06:23:31.342Z,5.77
2022-09-15T06:26:34.948Z,5.70
2022-09-15T06:29:38.021Z,5.37
2022-09-15T06:32:43.256Z,5.00
2022-09-15T06:35:49.467Z,4.67
2022-09-15T06:38:54.190Z,5.30
2022-09-15T06:42:05.841Z,4.77
2022-09-15T06:45:09.748Z,4.77
2022-09-15T06:48:24.559Z,4.70
2022-09-15T06:51:31.465Z,10.67
2022-09-15T06:54:35.920Z,5.70
2022-09-15T06:57:38.971Z,5.50
2022-09-15T07:00:42.100Z,5.07
2022-09-15T07:03:45.400Z,5.13
2022-09-15T07:06:48.783Z,4.90
2022-09-15T07:09:53.251Z,4.30
2022-09-15T07:12:56.564Z,4.03
2022-09-15T07:16:01.780Z,4.50
2022-09-15T07:19:06.054Z,3.80
2022-09-15T07:22:11.979Z,4.03
2022-09-15T07:25:16.609Z,3.80
2022-09-15T07:28:19.704Z,3.70
2022-09-15T07:31:24.668Z,3.38
2022-09-15T07:34:27.990Z,3.55
2022-09-15T07:37:32.458Z,3.80
2022-09-15T07:40:37.605Z,3.58
2022-09-15T07:43:41.211Z,3.70
2022-09-15T07:46:44.269Z,3.42
2022-09-15T07:49:47.311Z,2.75
2022-09-15T07:52:50.517Z,2.78
2022-09-15T07:55:55.891Z,3.42
2022-09-15T07:58:59.284Z,3.03
2022-09-15T08:02:02.398Z,3.42
2022-09-15T08:05:05.982Z,3.58
2022-09-15T08:08:09.329Z,2.88
2022-09-15T08:11:18.902Z,3.10
2022-09-15T08:14:22.354Z,4.25
2022-09-15T08:17:25.447Z,3.05
2022-09-15T08:20:28.803Z,2.85
2022-09-15T08:23:31.925Z,2.67
2022-09-15T08:26:38.497Z,3.47
2022-09-15T08:29:41.579Z,5.95
2022-09-15T08:32:44.714Z,3.45
2022-09-15T08:35:47.805Z,3.53
2022-09-15T08:38:50.975Z,3.10
2022-09-15T08:41:56.924Z,2.85
2022-09-15T08:45:04.254Z,5.38
2022-09-15T08:48:09.182Z,3.92
2022-09-15T08:51:17.207Z,4.72
2022-09-15T08:54:23.316Z,4.22
2022-09-15T08:57:28.336Z,3.05
2022-09-15T09:00:32.230Z,3.93
2022-09-15T09:03:50.274Z,3.30
2022-09-15T09:07:04.294Z,3.63
2022-09-15T09:10:14.431Z,2.70
2022-09-15T09:13:34.675Z,2.60
2022-09-15T09:16:54.000Z,2.90
2022-09-15T09:20:17.341Z,2.60
2022-09-15T09:23:25.634Z,2.63
2022-09-15T09:26:32.890Z,3.13
2022-09-15T09:29:43.821Z,3.83
2022-09-15T09:32:50.650Z,2.50
2022-09-15T09:35:54.534Z,3.43
2022-09-15T09:38:58.583Z,3.40
2022-09-15T09:42:02.838Z,2.90
2022-09-15T09:45:08.935Z,2.57
2022-09-15T09:48:16.394Z,5.40
2022-09-15T09:51:36.252Z,4.40
2022-09-15T09:54:39.429Z,2.90
2022-09-15T09:57:42.553Z,2.70
2022-09-15T10:00:47.446Z,2.50
2022-09-15T10:03:50.645Z,2.70
2022-09-15T10:06:57.376Z,5.07
2022-09-15T10:10:02.271Z,4.63
2022-09-15T10:13:05.488Z,3.53
2022-09-15T10:16:11.335Z,6.57
2022-09-15T10:19:16.105Z,3.13
2022-09-15T10:22:25.285Z,2.97
2022-09-15T10:25:57.585Z,3.20
2022-09-15T10:29:25.530Z,2.80
2022-09-15T10:32:31.720Z,2.87
2022-09-15T10:35:34.976Z,2.30
2022-09-15T10:38:43.047Z,2.20
2022-09-15T10:41:52.994Z,1.80
2022-09-15T10:45:08.819Z,1.80
2022-09-15T10:48:30.580Z,1.60
2022-09-15T10:51:46.501Z,1.60
2022-09-15T10:55:13.973Z,1.47
2022-09-15T10:58:31.485Z,1.43
2022-09-15T11:01:59.948Z,1.20
2022-09-15T11:05:22.703Z,1.70
2022-09-15T11:08:38.000Z,1.60
2022-09-15T11:11:49.845Z,1.40
2022-09-15T11:15:15.817Z,1.83
2022-09-15T11:18:30.918Z,1.97
2022-09-15T11:21:40.409Z,1.90
2022-09-15T11:24:48.053Z,2.40
2022-09-15T11:27:55.019Z,2.10
2022-09-15T11:31:03.596Z,1.47
2022-09-15T11:34:13.075Z,1.43
2022-09-15T11:37:22.528Z,1.77
2022-09-15T11:40:30.719Z,2.60
2022-09-15T11:43:38.690Z,2.17
2022-09-15T11:47:04.250Z,1.87
2022-09-15T11:50:16.280Z,1.90
2022-09-15T11:53:29.089Z,1.60
2022-09-15T11:56:37.755Z,1.80
2022-09-15T11:59:47.348Z,2.10
2022-09-15T12:02:54.593Z,1.53
2022-09-15T12:06:02.044Z,1.80
2022-09-15T12:09:08.188Z,1.33
2022-09-15T12:12:17.473Z,1.30
2022-09-15T12:15:27.221Z,1.83
2022-09-15T12:18:41.960Z,1.80
2022-09-15T12:21:54.472Z,2.17
2022-09-15T12:25:03.667Z,1.70
2022-09-15T12:28:38.617Z,1.57
2022-09-15T12:31:42.428Z,1.67
2022-09-15T12:34:58.495Z,1.60
2022-09-15T12:38:01.923Z,1.20
2022-09-15T12:41:11.778Z,2.90
2022-09-15T12:44:26.165Z,3.37
2022-09-15T12:47:35.467Z,1.57
2022-09-15T12:50:40.615Z,1.70
2022-09-15T12:53:51.672Z,2.03
2022-09-15T12:56:57.233Z,1.90
2022-09-15T13:00:32.729Z,1.60
2022-09-15T13:07:25.042Z,1.47
2022-09-15T13:10:32.729Z,1.80
2022-09-15T13:13:40.780Z,2.97
2022-09-15T13:16:53.841Z,1.83
2022-09-15T13:20:00.662Z,2.33
2022-09-15T13:23:08.798Z,2.20
2022-09-15T13:26:18.744Z,2.00
2022-09-15T13:29:23.077Z,2.50
2022-09-15T13:32:41.030Z,2.33
2022-09-15T13:35:59.494Z,2.50
2022-09-15T13:39:25.176Z,2.60
2022-09-15T13:42:41.699Z,3.07
2022-09-15T13:45:53.985Z,3.23
2022-09-15T13:49:13.641Z,2.73
2022-09-15T13:52:26.695Z,3.37
2022-09-15T13:55:32.805Z,2.30
2022-09-15T14:02:01.394Z,2.07
2022-09-15T14:05:04.589Z,2.43
2022-09-15T14:08:10.785Z,2.30
2022-09-15T14:11:16.569Z,2.70
2022-09-15T14:14:35.767Z,2.47
2022-09-15T14:17:46.145Z,2.13
2022-09-15T14:20:59.288Z,2.07
2022-09-15T14:24:06.122Z,1.57
2022-09-15T14:27:10.987Z,1.70
2022-09-15T14:30:21.828Z,1.50
2022-09-15T14:33:25.507Z,1.60
2022-09-15T14:36:31.921Z,1.80
2022-09-15T14:39:37.727Z,1.40
2022-09-15T14:42:42.662Z,1.47
2022-09-15T14:46:02.875Z,1.10
2022-09-15T14:49:12.612Z,1.27
2022-09-15T14:52:25.886Z,1.20
2022-09-15T14:55:31.449Z,1.20
2022-09-15T14:58:37.771Z,1.33
2022-09-15T15:01:47.356Z,1.70
2022-09-15T15:04:54.067Z,1.27
2022-09-15T15:07:58.560Z,1.43
2022-09-15T15:11:02.548Z,1.13
2022-09-15T15:14:09.180Z,1.10
2022-09-15T15:17:33.492Z,1.43
2022-09-15T15:20:36.602Z,3.80
2022-09-15T15:23:47.163Z,3.20
2022-09-15T15:26:51.687Z,1.37
2022-09-15T15:29:54.761Z,1.43
2022-09-15T15:33:01.015Z,1.60
2022-09-15T15:36:09.453Z,1.67
2022-09-15T15:39:24.723Z,1.43
2022-09-15T15:42:28.941Z,1.40
2022-09-15T15:45:33.768Z,1.40
2022-09-15T15:48:38.685Z,1.10
2022-09-15T15:51:42.213Z,2.03
2022-09-15T15:54:45.298Z,1.73
2022-09-15T15:57:51.163Z,1.27
2022-09-15T16:00:56.471Z,1.60
2022-09-15T16:04:01.234Z,1.47
2022-09-15T16:07:04.433Z,1.40
2022-09-15T16:10:09.344Z,1.20
2022-09-15T16:13:15.712Z,1.33
2022-09-15T16:16:20.981Z,1.60
2022-09-15T16:19:25.476Z,1.30
2022-09-15T16:22:29.108Z,1.27
2022-09-15T16:25:39.626Z,1.70
2022-09-15T16:28:42.896Z,1.63
2022-09-15T16:31:46.036Z,2.27
2022-09-15T16:34:51.302Z,1.93
2022-09-15T16:37:54.554Z,1.20
2022-09-15T16:40:57.730Z,2.40
2022-09-15T16:44:02.668Z,2.10
2022-09-15T16:47:06.301Z,2.13
2022-09-15T16:50:13.178Z,2.40
2022-09-15T16:53:17.929Z,2.20
2022-09-15T16:56:21.299Z,2.50
2022-09-15T16:59:24.898Z,1.90
2022-09-15T17:02:28.054Z,2.27
2022-09-15T17:05:35.877Z,2.03
2022-09-15T17:08:38.969Z,1.90
2022-09-15T17:11:42.386Z,1.73
2022-09-15T17:14:45.553Z,2.67
2022-09-15T17:17:48.981Z,2.90
2022-09-15T17:20:53.906Z,2.83
2022-09-15T17:23:57.060Z,3.33
2022-09-15T17:27:00.351Z,3.40
2022-09-15T17:30:03.471Z,2.70
2022-09-15T17:33:08.808Z,2.40
2022-09-15T17:36:13.906Z,2.43
2022-09-15T17:39:17.049Z,2.00
2022-09-15T17:42:20.121Z,2.10
2022-09-15T17:45:25.552Z,2.30
2022-09-15T17:48:28.648Z,2.20
2022-09-15T17:51:33.209Z,2.13
2022-09-15T17:54:36.618Z,2.27
2022-09-15T17:57:39.806Z,2.20
2022-09-15T18:00:44.617Z,2.70
2022-09-15T18:03:49.167Z,2.70
2022-09-15T18:06:54.240Z,2.10
2022-09-15T18:09:57.915Z,2.10
2022-09-15T18:13:02.184Z,2.43
2022-09-15T18:16:07.771Z,2.93
2022-09-15T18:19:11.209Z,3.00
2022-09-15T18:22:15.965Z,2.40
2022-09-15T18:25:21.335Z,2.10
2022-09-15T18:28:24.910Z,2.60
2022-09-15T18:31:28.350Z,2.57
2022-09-15T18:34:32.036Z,2.80
2022-09-15T18:37:37.329Z,2.73
2022-09-15T18:40:44.880Z,3.10
2022-09-15T18:43:49.251Z,3.00
2022-09-15T18:46:52.790Z,2.60
2022-09-15T18:49:55.981Z,2.80
2022-09-15T18:53:00.640Z,2.40
2022-09-15T18:56:11.188Z,3.10
2022-09-15T18:59:17.567Z,2.60
2022-09-15T19:02:21.619Z,2.40
2022-09-15T19:05:25.321Z,3.00
2022-09-15T19:08:30.126Z,3.70
2022-09-15T19:11:33.637Z,2.60
2022-09-15T19:14:37.027Z,2.77
2022-09-15T19:17:42.141Z,3.00
2022-09-15T19:20:45.566Z,2.60
2022-09-15T19:23:50.401Z,2.70
2022-09-15T19:26:53.883Z,2.67
2022-09-15T19:29:57.409Z,2.60
2022-09-15T19:33:00.751Z,2.50
2022-09-15T19:36:26.935Z,3.00
2022-09-15T19:39:30.636Z,2.60
2022-09-15T19:42:34.039Z,2.37
2022-09-15T19:45:37.531Z,2.67
2022-09-15T19:48:43.799Z,2.53
2022-09-15T19:51:55.469Z,2.87
2022-09-15T19:55:00.126Z,3.37
2022-09-15T19:58:03.284Z,3.00
2022-09-15T20:01:06.413Z,3.03
2022-09-15T20:07:30.153Z,2.33
2022-09-15T20:10:34.600Z,3.23
2022-09-15T20:13:41.497Z,3.10
2022-09-15T20:16:44.775Z,2.70
2022-09-15T20:19:47.845Z,3.10
2022-09-15T20:22:50.888Z,2.70
2022-09-15T20:25:59.672Z,3.13
2022-09-15T20:29:04.125Z,3.47
2022-09-15T20:32:07.564Z,2.90
2022-09-15T20:35:10.596Z,3.07
2022-09-15T20:38:13.699Z,3.30
2022-09-15T20:41:20.308Z,2.90
2022-09-15T20:44:23.473Z,2.20
2022-09-15T20:47:26.549Z,3.17
2022-09-15T20:50:30.415Z,3.10
2022-09-15T20:53:34.203Z,2.97
2022-09-15T20:56:38.676Z,3.03
2022-09-15T20:59:41.742Z,2.77
2022-09-15T21:02:44.904Z,2.80
2022-09-15T21:05:48.088Z,2.60
2022-09-15T21:08:52.069Z,2.87
2022-09-15T21:11:56.591Z,2.50
2022-09-15T21:14:59.683Z,2.40
2022-09-15T21:18:03.121Z,2.80
2022-09-15T21:21:08.752Z,2.47
2022-09-15T21:24:11.870Z,2.37
2022-09-15T21:27:29.004Z,2.53
2022-09-15T21:30:32.098Z,2.50
2022-09-15T21:33:40.146Z,2.10
2022-09-15T21:36:43.250Z,2.40
2022-09-15T21:39:46.380Z,3.07
2022-09-15T21:42:50.904Z,2.57
2022-09-15T21:45:56.774Z,2.20
2022-09-15T21:49:01.659Z,2.57
2022-09-15T21:52:04.833Z,3.10
2022-09-15T21:55:08.423Z,3.00
2022-09-15T21:58:12.879Z,3.03
2022-09-15T22:01:18.835Z,3.47
2022-09-15T22:04:22.008Z,3.20
2022-09-15T22:07:25.088Z,3.60
2022-09-15T22:10:28.217Z,3.70
2022-09-15T22:13:32.937Z,4.03
2022-09-15T22:16:39.529Z,3.83
2022-09-15T22:19:43.329Z,4.10
2022-09-15T22:22:46.412Z,3.90
2022-09-15T22:25:49.477Z,3.60
2022-09-15T22:28:54.299Z,4.00
2022-09-15T22:31:57.415Z,5.33
2022-09-15T22:35:00.557Z,4.23
2022-09-15T22:38:03.663Z,4.70
2022-09-15T22:41:09.108Z,4.27
2022-09-15T22:44:19.783Z,3.30
2022-09-15T22:47:22.920Z,3.50
2022-09-15T22:50:26.100Z,4.10
2022-09-15T22:53:29.425Z,4.10
2022-09-15T22:56:32.497Z,4.00
2022-09-15T22:59:36.938Z,3.40
2022-09-15T23:02:39.989Z,3.50
2022-09-15T23:05:43.057Z,3.60
2022-09-15T23:08:50.018Z,2.80
2022-09-15T23:11:53.065Z,3.70
2022-09-15T23:14:57.564Z,3.37
2022-09-15T23:18:00.628Z,3.13
2022-09-15T23:21:07.353Z,2.50
2022-09-15T23:24:12.497Z,2.67
2022-09-15T23:27:15.737Z,2.80
2022-09-15T23:30:20.218Z,3.70
2022-09-15T23:33:24.521Z,3.20
2022-09-15T23:36:27.595Z,2.93
2022-09-15T23:39:30.642Z,2.57
2022-09-15T23:42:33.761Z,3.20
2022-09-15T23:45:39.074Z,3.20
2022-09-15T23:48:42.257Z,3.20
2022-09-15T23:51:45.336Z,3.10
2022-09-15T23:54:48.400Z,3.07
2022-09-15T23:57:51.507Z,3.30
